createdAt,value
2022-10-25T00:01:41.657Z,964.41
2022-10-25T00:02:43.212Z,964.47
2022-10-25T00:03:41.372Z,964.49
2022-10-25T00:04:41.362Z,964.47
2022-10-25T00:05:41.363Z,964.5
2022-10-25T00:07:41.482Z,964.45
2022-10-25T00:08:41.521Z,964.37
2022-10-25T00:09:41.393Z,964.35
2022-10-25T00:10:41.475Z,964.34
2022-10-25T00:11:41.546Z,964.25
2022-10-25T00:12:41.507Z,964.3
2022-10-25T00:13:41.577Z,964.26
2022-10-25T00:14:41.431Z,964.22
2022-10-25T00:15:41.393Z,964.18
2022-10-25T00:16:41.473Z,964.19
2022-10-25T00:18:41.516Z,964.15
2022-10-25T00:19:41.482Z,964.1
2022-10-25T00:20:41.554Z,964.08
2022-10-25T00:21:41.411Z,964.12
2022-10-25T00:22:41.406Z,964.16
2022-10-25T00:23:41.553Z,964.14
2022-10-25T00:24:41.510Z,964.13
2022-10-25T00:25:41.416Z,964.06
2022-10-25T00:26:41.433Z,964.02
2022-10-25T00:27:41.510Z,963.94
2022-10-25T00:28:41.526Z,963.86
2022-10-25T00:29:41.422Z,963.84
2022-10-25T00:32:41.522Z,963.88
2022-10-25T00:33:41.539Z,963.93
2022-10-25T00:35:41.572Z,963.95
2022-10-25T00:36:41.526Z,963.93
2022-10-25T00:37:41.526Z,963.95
2022-10-25T00:38:41.581Z,963.94
2022-10-25T00:39:41.548Z,963.97
2022-10-25T00:40:41.632Z,964
2022-10-25T00:42:41.480Z,963.94
2022-10-25T00:43:41.456Z,963.89
2022-10-25T00:44:41.584Z,963.9
2022-10-25T00:45:41.558Z,963.86
2022-10-25T00:46:42.924Z,963.91
2022-10-25T00:47:41.603Z,963.94
2022-10-25T00:48:41.549Z,963.95
2022-10-25T00:49:41.625Z,963.92
2022-10-25T00:50:41.587Z,963.91
2022-10-25T00:51:41.490Z,963.94
2022-10-25T00:52:42.432Z,963.96
2022-10-25T00:54:41.598Z,963.93
2022-10-25T00:55:41.625Z,963.95
2022-10-25T00:56:41.602Z,963.92
2022-10-25T00:57:41.566Z,963.96
2022-10-25T00:59:41.604Z,964.01
2022-10-25T01:00:41.570Z,963.99
2022-10-25T01:01:41.601Z,964.04
2022-10-25T01:02:41.670Z,964.14
2022-10-25T01:03:41.571Z,964.18
2022-10-25T01:04:41.515Z,964.2
2022-10-25T01:05:41.610Z,964.21
2022-10-25T01:06:42.559Z,964.25
2022-10-25T01:09:41.670Z,964.23
2022-10-25T01:10:41.534Z,964.19
2022-10-25T01:11:41.663Z,964.18
2022-10-25T01:12:42.582Z,964.2
2022-10-25T01:13:41.659Z,964.13
2022-10-25T01:14:41.617Z,964.12
2022-10-25T01:15:41.684Z,964.07
2022-10-25T01:16:41.539Z,964.05
2022-10-25T01:19:41.674Z,964.07
2022-10-25T01:20:41.549Z,964.09
2022-10-25T01:22:41.661Z,964.07
2022-10-25T01:24:41.766Z,964.02
2022-10-25T01:26:41.702Z,963.99
2022-10-25T01:27:41.738Z,964.04
2022-10-25T01:28:41.572Z,964.05
2022-10-25T01:31:41.674Z,964.04
2022-10-25T01:32:41.642Z,964.03
2022-10-25T01:33:41.582Z,963.97
2022-10-25T01:34:41.680Z,963.91
2022-10-25T01:35:41.656Z,963.94
2022-10-25T01:38:41.793Z,963.92
2022-10-25T01:39:41.734Z,963.87
2022-10-25T01:42:41.607Z,963.84
2022-10-25T01:43:41.592Z,963.82
2022-10-25T01:44:41.609Z,963.81
2022-10-25T01:45:41.613Z,963.75
2022-10-25T01:47:41.765Z,963.73
2022-10-25T01:48:41.727Z,963.7
2022-10-25T01:49:41.692Z,963.69
2022-10-25T01:51:41.738Z,963.66
2022-10-25T01:52:41.723Z,963.64
2022-10-25T01:53:41.771Z,963.63
2022-10-25T01:54:41.740Z,963.62
2022-10-25T01:56:41.780Z,963.6
2022-10-25T01:57:41.746Z,963.59
2022-10-25T01:58:41.722Z,963.58
2022-10-25T01:59:41.663Z,963.56
2022-10-25T02:00:41.685Z,963.62
2022-10-25T02:01:41.883Z,963.63
2022-10-25T02:02:41.676Z,963.67
2022-10-25T02:03:41.756Z,963.68
2022-10-25T02:04:41.713Z,963.74
2022-10-25T02:05:41.679Z,963.71
2022-10-25T02:06:41.662Z,963.69
2022-10-25T02:08:41.800Z,963.73
2022-10-25T02:10:41.803Z,963.8
2022-10-25T02:11:42.950Z,963.78
2022-10-25T02:12:41.766Z,963.77
2022-10-25T02:13:41.687Z,963.8
2022-10-25T02:14:41.798Z,963.82
2022-10-25T02:15:41.770Z,963.83
2022-10-25T02:16:41.678Z,963.82
2022-10-25T02:17:41.680Z,963.78
2022-10-25T02:18:41.764Z,963.79
2022-10-25T02:19:42.978Z,963.76
2022-10-25T02:20:43.080Z,963.8
2022-10-25T02:21:41.880Z,963.81
2022-10-25T02:23:41.816Z,963.79
2022-10-25T02:26:41.900Z,963.72
2022-10-25T02:27:41.714Z,963.73
2022-10-25T02:28:41.851Z,963.69
2022-10-25T02:29:41.818Z,963.66
2022-10-25T02:30:41.790Z,963.68
2022-10-25T02:32:41.827Z,963.71
2022-10-25T02:33:41.796Z,963.72
2022-10-25T02:34:41.719Z,963.68
2022-10-25T02:35:41.825Z,963.75
2022-10-25T02:36:41.795Z,963.78
2022-10-25T02:37:41.865Z,963.84
2022-10-25T02:38:41.826Z,963.89
2022-10-25T02:39:41.799Z,963.88
2022-10-25T02:40:41.869Z,963.87
2022-10-25T02:41:41.744Z,963.88
2022-10-25T02:42:41.803Z,963.87
2022-10-25T02:43:41.747Z,963.83
2022-10-25T02:44:41.849Z,963.84
2022-10-25T02:45:41.903Z,963.86
2022-10-25T02:47:41.947Z,963.88
2022-10-25T02:49:43.189Z,963.91
2022-10-25T02:50:41.755Z,963.9
2022-10-25T02:51:41.863Z,963.87
2022-10-25T02:52:41.797Z,963.86
2022-10-25T02:53:41.848Z,963.87
2022-10-25T02:54:41.921Z,963.86
2022-10-25T02:55:41.885Z,963.87
2022-10-25T02:56:41.772Z,963.83
2022-10-25T02:57:41.925Z,963.88
2022-10-25T02:58:41.780Z,963.87
2022-10-25T03:00:43.269Z,963.9
2022-10-25T03:01:41.933Z,963.82
2022-10-25T03:02:41.864Z,963.84
2022-10-25T03:03:41.942Z,963.83
2022-10-25T03:04:41.903Z,963.85
2022-10-25T03:05:41.865Z,963.79
2022-10-25T03:06:41.811Z,963.83
2022-10-25T03:07:41.901Z,963.86
2022-10-25T03:09:42.897Z,963.82
2022-10-25T03:10:41.916Z,963.79
2022-10-25T03:12:41.953Z,963.75
2022-10-25T03:13:41.906Z,963.77
2022-10-25T03:14:41.814Z,963.75
2022-10-25T03:15:41.952Z,963.72
2022-10-25T03:17:41.886Z,963.71
2022-10-25T03:18:41.823Z,963.72
2022-10-25T03:19:41.921Z,963.73
2022-10-25T03:20:41.993Z,963.76
2022-10-25T03:22:41.943Z,963.75
2022-10-25T03:23:41.911Z,963.78
2022-10-25T03:24:41.847Z,963.79
2022-10-25T03:25:41.840Z,963.8
2022-10-25T03:26:42.871Z,963.76
2022-10-25T03:27:41.966Z,963.75
2022-10-25T03:29:42.004Z,963.74
2022-10-25T03:30:41.971Z,963.77
2022-10-25T03:31:41.852Z,963.78
2022-10-25T03:32:41.857Z,963.75
2022-10-25T03:33:41.855Z,963.76
2022-10-25T03:34:41.939Z,963.79
2022-10-25T03:36:41.866Z,963.78
2022-10-25T03:37:41.942Z,963.76
2022-10-25T03:38:42.024Z,963.78
2022-10-25T03:39:41.977Z,963.77
2022-10-25T03:40:41.951Z,963.75
2022-10-25T03:41:41.887Z,963.76
2022-10-25T03:42:41.981Z,963.74
2022-10-25T03:43:41.954Z,963.77
2022-10-25T03:45:42.043Z,963.81
2022-10-25T03:46:41.896Z,963.83
2022-10-25T03:47:42.026Z,963.84
2022-10-25T03:48:41.991Z,963.87
2022-10-25T03:49:41.961Z,963.92
2022-10-25T03:51:41.915Z,963.94
2022-10-25T03:52:41.910Z,963.96
2022-10-25T03:53:41.917Z,963.99
2022-10-25T03:54:41.905Z,963.94
2022-10-25T03:55:41.910Z,963.9
2022-10-25T03:57:42.012Z,963.89
2022-10-25T03:58:43.072Z,963.85
2022-10-25T03:59:42.062Z,963.86
2022-10-25T04:00:41.981Z,963.83
2022-10-25T04:01:42.181Z,963.84
2022-10-25T04:02:41.941Z,963.8
2022-10-25T04:03:42.018Z,963.79
2022-10-25T04:04:43.114Z,963.8
2022-10-25T04:05:41.937Z,963.81
2022-10-25T04:07:42.180Z,963.79
2022-10-25T04:09:41.969Z,963.83
2022-10-25T04:10:42.092Z,963.79
2022-10-25T04:11:41.946Z,963.82
2022-10-25T04:12:41.985Z,963.86
2022-10-25T04:13:42.092Z,963.88
2022-10-25T04:14:42.069Z,963.89
2022-10-25T04:15:42.031Z,963.9
2022-10-25T04:17:42.072Z,963.88
2022-10-25T04:18:42.051Z,963.86
2022-10-25T04:19:41.975Z,963.88
2022-10-25T04:23:42.159Z,963.89
2022-10-25T04:24:42.048Z,963.9
2022-10-25T04:25:42.106Z,963.89
2022-10-25T04:26:41.978Z,963.91
2022-10-25T04:27:42.000Z,963.88
2022-10-25T04:28:42.115Z,963.89
2022-10-25T04:29:42.079Z,963.88
2022-10-25T04:30:42.156Z,963.91
2022-10-25T04:31:42.122Z,963.9
2022-10-25T04:32:42.091Z,963.87
2022-10-25T04:34:42.007Z,963.85
2022-10-25T04:36:42.162Z,963.89
2022-10-25T04:37:42.126Z,963.84
2022-10-25T04:38:42.093Z,963.88
2022-10-25T04:40:42.134Z,963.9
2022-10-25T04:42:42.157Z,963.92
2022-10-25T04:43:42.139Z,963.89
2022-10-25T04:44:42.104Z,963.88
2022-10-25T04:45:42.071Z,963.89
2022-10-25T04:46:45.059Z,963.9
2022-10-25T04:47:42.191Z,963.89
2022-10-25T04:48:43.363Z,963.88
2022-10-25T04:50:42.158Z,963.87
2022-10-25T04:51:42.226Z,963.89
2022-10-25T04:54:42.271Z,963.88
2022-10-25T04:55:42.158Z,963.92
2022-10-25T04:56:42.073Z,963.93
2022-10-25T04:57:42.061Z,963.95
2022-10-25T04:58:42.158Z,963.91
2022-10-25T04:59:42.226Z,963.94
2022-10-25T05:02:43.531Z,963.96
2022-10-25T05:03:42.069Z,963.97
2022-10-25T05:04:42.161Z,963.99
2022-10-25T05:05:42.239Z,964.01
2022-10-25T05:07:42.182Z,963.99
2022-10-25T05:08:43.480Z,963.97
2022-10-25T05:09:43.819Z,963.96
2022-10-25T05:11:42.246Z,963.95
2022-10-25T05:12:42.257Z,963.92
2022-10-25T05:13:42.180Z,963.95
2022-10-25T05:14:43.527Z,963.94
2022-10-25T05:15:42.217Z,963.96
2022-10-25T05:16:42.174Z,963.95
2022-10-25T05:17:43.544Z,963.96
2022-10-25T05:19:42.274Z,963.95
2022-10-25T05:20:42.119Z,963.93
2022-10-25T05:23:42.209Z,963.88
2022-10-25T05:24:42.255Z,963.89
2022-10-25T05:25:42.121Z,963.9
2022-10-25T05:26:42.260Z,963.89
2022-10-25T05:27:42.235Z,963.9
2022-10-25T05:28:42.301Z,963.87
2022-10-25T05:29:42.266Z,963.89
2022-10-25T05:30:42.248Z,963.93
2022-10-25T05:31:42.212Z,963.92
2022-10-25T05:32:42.269Z,963.93
2022-10-25T05:33:42.238Z,963.92
2022-10-25T05:34:42.158Z,963.96
2022-10-25T05:35:42.275Z,963.97
2022-10-25T05:36:42.159Z,963.96
2022-10-25T05:37:42.209Z,963.99
2022-10-25T05:38:42.172Z,964
2022-10-25T05:39:42.168Z,963.99
2022-10-25T05:40:42.317Z,963.97
2022-10-25T05:41:42.171Z,964
2022-10-25T05:42:42.252Z,963.99
2022-10-25T05:43:42.231Z,964
2022-10-25T05:45:42.302Z,964.01
2022-10-25T05:46:42.196Z,963.99
2022-10-25T05:47:42.186Z,964.01
2022-10-25T05:49:42.346Z,963.99
2022-10-25T05:51:42.266Z,964.03
2022-10-25T05:52:42.337Z,964.01
2022-10-25T05:54:42.273Z,964.02
2022-10-25T05:55:42.343Z,964.01
2022-10-25T05:56:42.303Z,964
2022-10-25T05:57:42.205Z,964.03
2022-10-25T05:58:42.208Z,964.02
2022-10-25T05:59:42.307Z,964.06
2022-10-25T06:00:42.210Z,964.05
2022-10-25T06:01:42.491Z,964.07
2022-10-25T06:02:42.314Z,964.11
2022-10-25T06:03:42.223Z,964.09
2022-10-25T06:04:42.219Z,964.11
2022-10-25T06:05:42.317Z,964.14
2022-10-25T06:06:42.280Z,964.17
2022-10-25T06:08:42.364Z,964.19
2022-10-25T06:09:42.255Z,964.2
2022-10-25T06:11:42.441Z,964.21
2022-10-25T06:12:42.413Z,964.23
2022-10-25T06:13:42.250Z,964.26
2022-10-25T06:14:42.335Z,964.27
2022-10-25T06:16:42.370Z,964.34
2022-10-25T06:17:42.343Z,964.31
2022-10-25T06:18:42.258Z,964.34
2022-10-25T06:19:42.379Z,964.3
2022-10-25T06:20:42.340Z,964.31
2022-10-25T06:21:43.412Z,964.32
2022-10-25T06:22:42.380Z,964.35
2022-10-25T06:23:42.345Z,964.33
2022-10-25T06:24:42.278Z,964.32
2022-10-25T06:25:42.384Z,964.34
2022-10-25T06:26:42.270Z,964.35
2022-10-25T06:27:42.432Z,964.33
2022-10-25T06:29:42.375Z,964.34
2022-10-25T06:32:42.486Z,964.37
2022-10-25T06:33:42.453Z,964.38
2022-10-25T06:34:42.296Z,964.39
2022-10-25T06:35:42.471Z,964.42
2022-10-25T06:36:42.434Z,964.46
2022-10-25T06:37:42.300Z,964.44
2022-10-25T06:38:42.329Z,964.46
2022-10-25T06:39:43.488Z,964.48
2022-10-25T06:40:42.408Z,964.47
2022-10-25T06:41:42.381Z,964.5
2022-10-25T06:42:42.311Z,964.48
2022-10-25T06:43:42.406Z,964.49
2022-10-25T06:44:42.490Z,964.5
2022-10-25T06:47:12.010Z,964.51
2022-10-25T06:47:42.469Z,964.53
2022-10-25T06:48:42.330Z,964.52
2022-10-25T06:49:42.325Z,964.54
2022-10-25T06:50:42.339Z,964.55
2022-10-25T06:51:42.338Z,964.59
2022-10-25T06:52:42.415Z,964.58
2022-10-25T06:53:42.502Z,964.62
2022-10-25T06:55:42.341Z,964.64
2022-10-25T06:56:42.434Z,964.66
2022-10-25T06:57:42.462Z,964.63
2022-10-25T06:58:42.471Z,964.6
2022-10-25T06:59:42.492Z,964.62
2022-10-25T07:00:43.670Z,964.64
2022-10-25T07:01:42.588Z,964.66
2022-10-25T07:02:42.504Z,964.68
2022-10-25T07:03:42.476Z,964.69
2022-10-25T07:04:42.441Z,964.71
2022-10-25T07:05:42.504Z,964.73
2022-10-25T07:07:42.586Z,964.76
2022-10-25T07:08:42.427Z,964.77
2022-10-25T07:09:42.377Z,964.78
2022-10-25T07:10:42.443Z,964.8
2022-10-25T07:13:42.523Z,964.81
2022-10-25T07:14:42.554Z,964.84
2022-10-25T07:15:42.397Z,964.83
2022-10-25T07:16:43.717Z,964.82
2022-10-25T07:17:42.400Z,964.79
2022-10-25T07:18:42.422Z,964.84
2022-10-25T07:19:42.456Z,964.8
2022-10-25T07:20:42.408Z,964.78
2022-10-25T07:21:42.433Z,964.82
2022-10-25T07:22:42.562Z,964.81
2022-10-25T07:23:42.481Z,964.85
2022-10-25T07:24:42.415Z,964.86
2022-10-25T07:25:43.764Z,964.84
2022-10-25T07:26:42.418Z,964.92
2022-10-25T07:27:42.503Z,964.89
2022-10-25T07:28:42.465Z,965.16
2022-10-25T07:29:42.453Z,965.08
2022-10-25T07:30:42.514Z,965.09
2022-10-25T07:31:42.576Z,965.11
2022-10-25T07:32:42.638Z,965.31
2022-10-25T07:33:42.507Z,965.43
2022-10-25T07:34:42.584Z,965.38
2022-10-25T07:35:46.896Z,965.47
2022-10-25T07:36:42.669Z,965.45
2022-10-25T07:37:42.581Z,965.54
2022-10-25T07:38:42.549Z,965.6
2022-10-25T07:39:42.462Z,965.55
2022-10-25T07:41:42.518Z,965.43
2022-10-25T07:42:42.482Z,965.37
2022-10-25T07:43:42.464Z,965.36
2022-10-25T07:44:42.652Z,965.33
2022-10-25T07:45:42.624Z,965.3
2022-10-25T07:46:43.891Z,965.35
2022-10-25T07:47:42.472Z,965.4
2022-10-25T07:48:42.631Z,965.48
2022-10-25T07:49:42.490Z,965.53
2022-10-25T07:50:42.481Z,965.46
2022-10-25T07:51:42.532Z,965.48
2022-10-25T07:52:42.611Z,965.47
2022-10-25T07:53:42.570Z,965.52
2022-10-25T07:55:42.600Z,965.47
2022-10-25T07:56:42.495Z,965.49
2022-10-25T07:57:44.121Z,965.47
2022-10-25T07:58:42.612Z,965.48
2022-10-25T07:59:42.574Z,965.51
2022-10-25T08:00:42.554Z,965.5
2022-10-25T08:01:42.629Z,965.56
2022-10-25T08:02:42.631Z,965.53
2022-10-25T08:04:42.627Z,965.49
2022-10-25T08:05:42.601Z,965.46
2022-10-25T08:07:42.674Z,965.5
2022-10-25T08:08:42.555Z,965.45
2022-10-25T08:09:42.631Z,965.46
2022-10-25T08:10:42.623Z,965.42
2022-10-25T08:11:42.596Z,965.4
2022-10-25T08:12:42.529Z,965.37
2022-10-25T08:13:42.552Z,965.35
2022-10-25T08:14:43.315Z,965.31
2022-10-25T08:16:42.642Z,965.29
2022-10-25T08:17:42.552Z,965.25
2022-10-25T08:18:42.681Z,965.27
2022-10-25T08:19:42.743Z,965.23
2022-10-25T08:21:42.568Z,965.18
2022-10-25T08:22:42.643Z,965.21
2022-10-25T08:23:42.637Z,965.2
2022-10-25T08:24:42.682Z,965.19
2022-10-25T08:25:42.643Z,965.17
2022-10-25T08:26:42.621Z,965.11
2022-10-25T08:27:42.685Z,965.12
2022-10-25T08:28:42.648Z,965.08
2022-10-25T08:29:43.638Z,965.07
2022-10-25T08:30:42.683Z,965.08
2022-10-25T08:33:42.706Z,965.03
2022-10-25T08:34:42.656Z,965.01
2022-10-25T08:35:42.744Z,964.99
2022-10-25T08:36:42.693Z,964.97
2022-10-25T08:37:42.592Z,965
2022-10-25T08:38:43.699Z,965.01
2022-10-25T08:39:42.698Z,964.95
2022-10-25T08:40:42.707Z,964.96
2022-10-25T08:41:42.595Z,964.95
2022-10-25T08:42:42.703Z,964.9
2022-10-25T08:43:42.674Z,964.88
2022-10-25T08:44:42.743Z,964.9
2022-10-25T08:45:42.863Z,964.88
2022-10-25T08:46:42.784Z,964.91
2022-10-25T08:47:43.801Z,964.89
2022-10-25T08:48:42.704Z,964.85
2022-10-25T08:50:42.754Z,964.83
2022-10-25T08:51:42.715Z,964.76
2022-10-25T08:52:43.783Z,964.75
2022-10-25T08:53:42.653Z,964.72
2022-10-25T08:54:42.723Z,964.71
2022-10-25T08:55:58.594Z,964.72
2022-10-25T08:56:56.892Z,964.69
2022-10-25T08:58:42.719Z,964.67
2022-10-25T08:59:42.791Z,964.71
2022-10-25T09:00:42.658Z,964.66
2022-10-25T09:01:42.691Z,964.65
2022-10-25T09:02:42.664Z,964.64
2022-10-25T09:03:42.740Z,964.65
2022-10-25T09:05:42.813Z,964.64
2022-10-25T09:06:42.654Z,964.6
2022-10-25T09:07:43.004Z,964.58
2022-10-25T09:08:42.779Z,964.57
2022-10-25T09:09:42.748Z,964.52
2022-10-25T09:10:42.813Z,964.55
2022-10-25T09:11:42.777Z,964.53
2022-10-25T09:12:42.689Z,964.51
2022-10-25T09:13:42.812Z,964.54
2022-10-25T09:14:42.787Z,964.55
2022-10-25T09:15:43.304Z,964.5
2022-10-25T09:16:42.824Z,964.49
2022-10-25T09:19:42.822Z,964.48
2022-10-25T09:20:42.694Z,964.45
2022-10-25T09:21:42.697Z,964.46
2022-10-25T09:24:42.728Z,964.54
2022-10-25T09:25:42.712Z,964.53
2022-10-25T09:26:42.804Z,964.47
2022-10-25T09:27:44.138Z,964.51
2022-10-25T09:29:42.762Z,964.5
2022-10-25T09:30:44.040Z,964.53
2022-10-25T09:32:42.894Z,964.56
2022-10-25T09:33:44.077Z,964.54
2022-10-25T09:34:42.843Z,964.55
2022-10-25T09:35:42.739Z,964.56
2022-10-25T09:36:42.741Z,964.59
2022-10-25T09:37:42.748Z,964.52
2022-10-25T09:38:42.813Z,964.55
2022-10-25T09:39:42.880Z,964.54
2022-10-25T09:40:47.480Z,964.51
2022-10-25T09:41:42.968Z,964.49
2022-10-25T09:42:42.900Z,964.48
2022-10-25T09:43:42.754Z,964.49
2022-10-25T09:44:42.846Z,964.46
2022-10-25T09:46:43.015Z,964.49
2022-10-25T09:48:42.902Z,964.48
2022-10-25T09:49:42.889Z,964.5
2022-10-25T09:52:42.961Z,964.49
2022-10-25T09:53:42.955Z,964.48
2022-10-25T09:54:42.789Z,964.46
2022-10-25T09:55:42.781Z,964.48
2022-10-25T09:58:42.867Z,964.49
2022-10-25T09:59:42.824Z,964.47
2022-10-25T10:00:42.926Z,964.46
2022-10-25T10:02:43.004Z,964.47
2022-10-25T10:03:43.756Z,964.44
2022-10-25T10:04:43.062Z,964.43
2022-10-25T10:05:42.868Z,964.49
2022-10-25T10:06:42.826Z,964.47
2022-10-25T10:07:42.891Z,964.53
2022-10-25T10:08:42.960Z,964.49
2022-10-25T10:10:42.898Z,964.51
2022-10-25T10:12:42.929Z,964.54
2022-10-25T10:13:42.899Z,964.51
2022-10-25T10:14:42.858Z,964.53
2022-10-25T10:15:42.938Z,964.51
2022-10-25T10:16:43.004Z,964.49
2022-10-25T10:17:42.848Z,964.42
2022-10-25T10:19:42.892Z,964.37
2022-10-25T10:20:42.997Z,964.38
2022-10-25T10:21:43.039Z,964.33
2022-10-25T10:22:43.032Z,964.35
2022-10-25T10:23:42.859Z,964.33
2022-10-25T10:24:42.870Z,964.29
2022-10-25T10:25:42.863Z,964.31
2022-10-25T10:26:42.877Z,964.32
2022-10-25T10:27:42.870Z,964.34
2022-10-25T10:28:43.027Z,964.33
2022-10-25T10:29:42.876Z,964.35
2022-10-25T10:30:42.955Z,964.34
2022-10-25T10:31:43.035Z,964.35
2022-10-25T10:32:42.995Z,964.36
2022-10-25T10:33:42.956Z,964.37
2022-10-25T10:34:44.429Z,964.35
2022-10-25T10:37:43.023Z,964.32
2022-10-25T10:38:43.021Z,964.33
2022-10-25T10:39:42.968Z,964.31
2022-10-25T10:40:43.993Z,964.3
2022-10-25T10:41:43.174Z,964.29
2022-10-25T10:43:42.966Z,964.31
2022-10-25T10:46:43.087Z,964.3
2022-10-25T10:47:42.912Z,964.32
2022-10-25T10:48:43.250Z,964.34
2022-10-25T10:49:42.949Z,964.3
2022-10-25T10:50:46.934Z,964.26
2022-10-25T10:51:44.282Z,964.25
2022-10-25T10:52:44.164Z,964.21
2022-10-25T10:53:43.017Z,964.25
2022-10-25T10:54:43.101Z,964.21
2022-10-25T10:55:43.058Z,964.22
2022-10-25T10:56:43.024Z,964.23
2022-10-25T10:57:43.007Z,964.21
2022-10-25T10:58:42.938Z,964.24
2022-10-25T10:59:43.027Z,964.26
2022-10-25T11:00:42.971Z,964.25
2022-10-25T11:01:43.254Z,964.24
2022-10-25T11:02:43.236Z,964.2
2022-10-25T11:03:49.039Z,964.16
2022-10-25T11:04:43.075Z,964.18
2022-10-25T11:05:43.031Z,964.1
2022-10-25T11:06:43.009Z,964.11
2022-10-25T11:07:43.114Z,964.12
2022-10-25T11:08:42.958Z,964.14
2022-10-25T11:09:43.012Z,964.12
2022-10-25T11:10:43.078Z,964.14
2022-10-25T11:11:43.042Z,964.15
2022-10-25T11:12:43.079Z,964.16
2022-10-25T11:13:43.086Z,964.13
2022-10-25T11:14:42.976Z,964.15
2022-10-25T11:15:43.003Z,964.13
2022-10-25T11:16:43.072Z,964.1
2022-10-25T11:17:43.071Z,964.07
2022-10-25T11:18:42.992Z,964.01
2022-10-25T11:19:42.997Z,964
2022-10-25T11:20:43.158Z,963.99
2022-10-25T11:21:44.194Z,963.96
2022-10-25T11:23:43.064Z,963.99
2022-10-25T11:24:43.009Z,964.02
2022-10-25T11:26:43.082Z,964
2022-10-25T11:27:43.028Z,964.02
2022-10-25T11:28:43.102Z,964.04
2022-10-25T11:29:43.070Z,964.01
2022-10-25T11:30:43.024Z,964.02
2022-10-25T11:31:43.020Z,964.04
2022-10-25T11:32:43.167Z,964.03
2022-10-25T11:33:43.031Z,964.08
2022-10-25T11:34:43.028Z,964.04
2022-10-25T11:35:43.038Z,964.01
2022-10-25T11:36:43.148Z,964.03
2022-10-25T11:37:43.127Z,963.95
2022-10-25T11:38:43.177Z,963.98
2022-10-25T11:40:43.134Z,963.97
2022-10-25T11:41:43.051Z,963.82
2022-10-25T11:42:43.167Z,963.99
2022-10-25T11:43:43.129Z,963.93
2022-10-25T11:44:44.359Z,963.98
2022-10-25T11:45:43.386Z,963.97
2022-10-25T11:46:43.119Z,963.98
2022-10-25T11:48:43.173Z,963.99
2022-10-25T11:49:43.081Z,963.94
2022-10-25T11:50:43.197Z,963.95
2022-10-25T11:51:43.169Z,963.93
2022-10-25T11:54:43.227Z,963.82
2022-10-25T11:55:43.260Z,963.75
2022-10-25T11:56:43.083Z,963.81
2022-10-25T11:57:43.098Z,963.8
2022-10-25T11:58:44.384Z,963.75
2022-10-25T11:59:43.208Z,963.73
2022-10-25T12:00:43.180Z,963.71
2022-10-25T12:01:43.148Z,963.69
2022-10-25T12:02:43.145Z,963.66
2022-10-25T12:03:43.094Z,963.68
2022-10-25T12:05:43.142Z,963.65
2022-10-25T12:06:43.192Z,963.68
2022-10-25T12:07:43.171Z,963.66
2022-10-25T12:08:43.234Z,963.68
2022-10-25T12:09:43.241Z,963.69
2022-10-25T12:10:43.220Z,963.64
2022-10-25T12:11:43.230Z,963.63
2022-10-25T12:12:43.230Z,963.65
2022-10-25T12:13:44.506Z,963.6
2022-10-25T12:14:43.123Z,963.64
2022-10-25T12:15:43.203Z,963.61
2022-10-25T12:16:43.163Z,963.63
2022-10-25T12:18:43.199Z,963.6
2022-10-25T12:19:43.276Z,963.59
2022-10-25T12:21:43.288Z,963.57
2022-10-25T12:22:43.182Z,963.52
2022-10-25T12:23:43.249Z,963.54
2022-10-25T12:24:44.561Z,963.52
2022-10-25T12:25:43.287Z,963.57
2022-10-25T12:26:43.260Z,963.59
2022-10-25T12:27:43.318Z,963.57
2022-10-25T12:29:43.189Z,963.51
2022-10-25T12:31:43.331Z,963.54
2022-10-25T12:32:43.205Z,963.49
2022-10-25T12:33:43.331Z,963.47
2022-10-25T12:34:43.181Z,963.46
2022-10-25T12:35:43.193Z,963.45
2022-10-25T12:36:44.146Z,963.42
2022-10-25T12:37:44.104Z,963.47
2022-10-25T12:38:43.498Z,963.46
2022-10-25T12:39:43.340Z,963.42
2022-10-25T12:40:43.304Z,963.4
2022-10-25T12:41:43.271Z,963.42
2022-10-25T12:42:43.347Z,963.41
2022-10-25T12:43:43.210Z,963.38
2022-10-25T12:44:43.194Z,963.41
2022-10-25T12:45:43.343Z,963.37
2022-10-25T12:47:43.217Z,963.33
2022-10-25T12:48:43.248Z,963.31
2022-10-25T12:49:43.322Z,963.34
2022-10-25T12:50:43.280Z,963.36
2022-10-25T12:51:43.205Z,963.31
2022-10-25T12:52:43.320Z,963.29
2022-10-25T12:53:43.383Z,963.28
2022-10-25T12:54:43.356Z,963.29
2022-10-25T12:55:43.324Z,963.31
2022-10-25T12:56:43.226Z,963.32
2022-10-25T12:57:46.116Z,963.33
2022-10-25T12:58:43.322Z,963.37
2022-10-25T12:59:43.239Z,963.34
2022-10-25T13:00:43.251Z,963.33
2022-10-25T13:01:43.416Z,963.28
2022-10-25T13:04:43.334Z,963.27
2022-10-25T13:05:43.334Z,963.26
2022-10-25T13:08:43.486Z,963.24
2022-10-25T13:09:43.395Z,963.27
2022-10-25T13:12:43.494Z,963.22
2022-10-25T13:13:43.366Z,963.25
2022-10-25T13:14:43.316Z,963.2
2022-10-25T13:15:43.386Z,963.15
2022-10-25T13:16:43.357Z,963.17
2022-10-25T13:17:43.287Z,963.14
2022-10-25T13:18:43.284Z,963.08
2022-10-25T13:19:53.928Z,963.12
2022-10-25T13:20:43.300Z,963.09
2022-10-25T13:21:43.392Z,963.02
2022-10-25T13:23:43.418Z,962.96
2022-10-25T13:24:43.397Z,962.97
2022-10-25T13:25:43.473Z,963.02
2022-10-25T13:27:43.550Z,963.03
2022-10-25T13:29:43.483Z,963.04
2022-10-25T13:30:43.400Z,963
2022-10-25T13:31:43.396Z,962.99
2022-10-25T13:32:43.325Z,963.03
2022-10-25T13:33:43.341Z,963.01
2022-10-25T13:34:43.337Z,963
2022-10-25T13:35:43.337Z,962.96
2022-10-25T13:36:43.343Z,962.9
2022-10-25T13:37:43.363Z,962.93
2022-10-25T13:38:43.458Z,962.95
2022-10-25T13:39:43.352Z,962.96
2022-10-25T13:40:43.355Z,962.97
2022-10-25T13:41:43.351Z,963.02
2022-10-25T13:42:43.422Z,962.96
2022-10-25T13:43:43.357Z,962.93
2022-10-25T13:44:43.357Z,962.87
2022-10-25T13:45:43.406Z,962.9
2022-10-25T13:47:43.467Z,962.89
2022-10-25T13:48:43.359Z,962.93
2022-10-25T13:49:43.527Z,962.92
2022-10-25T13:51:43.432Z,962.87
2022-10-25T13:52:43.500Z,962.86
2022-10-25T13:53:43.472Z,962.8
2022-10-25T13:54:43.377Z,962.81
2022-10-25T13:55:43.535Z,962.83
2022-10-25T13:56:43.387Z,962.84
2022-10-25T13:57:44.623Z,962.86
2022-10-25T13:58:43.389Z,962.87
2022-10-25T13:59:43.388Z,962.88
2022-10-25T14:00:45.626Z,962.79
2022-10-25T14:01:43.798Z,962.78
2022-10-25T14:02:43.486Z,962.77
2022-10-25T14:03:43.395Z,962.75
2022-10-25T14:04:43.418Z,962.74
2022-10-25T14:05:43.403Z,962.73
2022-10-25T14:06:43.409Z,962.71
2022-10-25T14:07:43.428Z,962.69
2022-10-25T14:08:43.407Z,962.71
2022-10-25T14:09:43.588Z,962.66
2022-10-25T14:10:43.426Z,962.65
2022-10-25T14:11:45.164Z,962.62
2022-10-25T14:12:43.508Z,962.65
2022-10-25T14:14:43.560Z,962.61
2022-10-25T14:15:44.751Z,962.66
2022-10-25T14:16:43.438Z,962.65
2022-10-25T14:17:43.516Z,962.61
2022-10-25T14:18:43.440Z,962.59
2022-10-25T14:19:43.439Z,962.58
2022-10-25T14:20:43.445Z,962.55
2022-10-25T14:21:43.454Z,962.52
2022-10-25T14:22:43.448Z,962.55
2022-10-25T14:23:43.517Z,962.52
2022-10-25T14:24:43.452Z,962.56
2022-10-25T14:25:43.549Z,962.57
2022-10-25T14:26:43.514Z,962.56
2022-10-25T14:27:43.475Z,962.55
2022-10-25T14:28:43.471Z,962.56
2022-10-25T14:29:43.470Z,962.54
2022-10-25T14:30:43.485Z,962.56
2022-10-25T14:31:43.570Z,962.58
2022-10-25T14:33:43.509Z,962.55
2022-10-25T14:35:43.634Z,962.45
2022-10-25T14:36:43.603Z,962.38
2022-10-25T14:37:43.570Z,962.33
2022-10-25T14:38:43.495Z,962.28
2022-10-25T14:39:43.602Z,962.24
2022-10-25T14:40:43.502Z,962.23
2022-10-25T14:42:43.732Z,962.17
2022-10-25T14:43:43.596Z,962.2
2022-10-25T14:44:43.548Z,962.18
2022-10-25T14:46:43.594Z,962.15
2022-10-25T14:47:43.677Z,962.19
2022-10-25T14:48:43.509Z,962.17
2022-10-25T14:49:43.582Z,962.13